createdAt,value
2023-05-18T00:00:03.945Z,1.20
2023-05-18T00:02:31.944Z,1.08
2023-05-18T00:05:02.417Z,1.20
2023-05-18T00:07:34.073Z,1.13
2023-05-18T00:10:01.926Z,1.02
2023-05-18T00:12:29.302Z,1.38
2023-05-18T00:14:56.572Z,1.30
2023-05-18T00:17:23.799Z,1.15
2023-05-18T00:19:51.916Z,1.40
2023-05-18T00:22:19.225Z,1.45
2023-05-18T00:24:46.846Z,1.63
2023-05-18T00:27:14.997Z,1.23
2023-05-18T00:29:42.170Z,1.42
2023-05-18T00:32:09.432Z,1.13
2023-05-18T00:34:37.628Z,1.25
2023-05-18T00:37:04.764Z,1.42
2023-05-18T00:39:31.799Z,1.58
2023-05-18T00:41:58.910Z,1.15
2023-05-18T00:44:26.143Z,1.35
2023-05-18T00:46:53.272Z,1.20
2023-05-18T00:49:20.622Z,1.30
2023-05-18T00:51:48.119Z,1.27
2023-05-18T00:54:15.636Z,1.25
2023-05-18T00:56:46.301Z,1.10
2023-05-18T00:59:13.575Z,1.15
2023-05-18T01:01:46.357Z,1.52
2023-05-18T01:04:16.381Z,1.30
2023-05-18T01:06:43.882Z,1.10
2023-05-18T01:09:13.636Z,1.45
2023-05-18T01:12:21.356Z,1.40
2023-05-18T01:14:51.904Z,1.23
2023-05-18T01:17:37.736Z,1.38
2023-05-18T01:20:11.787Z,1.30
2023-05-18T01:22:42.429Z,1.42
2023-05-18T01:25:23.496Z,1.13
2023-05-18T01:27:51.998Z,0.90
2023-05-18T01:30:19.480Z,1.10
2023-05-18T01:32:47.285Z,1.10
2023-05-18T01:35:14.465Z,1.13
2023-05-18T01:37:41.523Z,1.25
2023-05-18T01:40:09.499Z,1.00
2023-05-18T01:42:43.608Z,1.23
2023-05-18T01:45:21.031Z,1.52
2023-05-18T01:47:49.556Z,1.40
2023-05-18T01:50:22.649Z,1.20
2023-05-18T01:53:06.506Z,1.10
2023-05-18T01:55:36.712Z,1.13
2023-05-18T01:58:06.960Z,1.00
2023-05-18T02:00:35.146Z,1.20
2023-05-18T02:03:02.458Z,1.10
2023-05-18T02:05:29.922Z,1.30
2023-05-18T02:07:58.202Z,1.10
2023-05-18T02:10:25.312Z,1.00
2023-05-18T02:12:53.878Z,1.23
2023-05-18T02:15:21.466Z,1.30
2023-05-18T02:17:49.771Z,1.70
2023-05-18T02:20:19.724Z,1.70
2023-05-18T02:22:46.883Z,1.67
2023-05-18T02:25:13.992Z,1.50
2023-05-18T02:27:41.224Z,1.25
2023-05-18T02:30:09.016Z,1.75
2023-05-18T02:32:39.511Z,1.30
2023-05-18T02:35:07.739Z,1.65
2023-05-18T02:37:40.112Z,1.73
2023-05-18T02:40:11.013Z,1.17
2023-05-18T02:42:38.178Z,1.23
2023-05-18T02:45:06.066Z,1.38
2023-05-18T02:47:34.153Z,1.10
2023-05-18T02:50:01.529Z,1.05
2023-05-18T02:52:29.738Z,1.00
2023-05-18T02:54:57.031Z,1.13
2023-05-18T02:57:39.902Z,1.10
2023-05-18T03:00:11.904Z,1.10
2023-05-18T03:02:40.481Z,1.00
2023-05-18T03:05:08.129Z,1.05
2023-05-18T03:07:35.231Z,1.17
2023-05-18T03:10:07.809Z,1.27
2023-05-18T03:12:34.980Z,1.10
2023-05-18T03:15:02.080Z,1.17
2023-05-18T03:17:30.509Z,1.10
2023-05-18T03:19:57.795Z,1.13
2023-05-18T03:22:24.950Z,1.73
2023-05-18T03:24:52.016Z,2.20
2023-05-18T03:27:23.330Z,1.58
2023-05-18T03:29:50.727Z,1.88
2023-05-18T03:32:18.360Z,1.80
2023-05-18T03:34:47.771Z,1.92
2023-05-18T03:37:16.093Z,1.55
2023-05-18T03:39:43.668Z,1.17
2023-05-18T03:42:10.977Z,1.40
2023-05-18T03:44:38.205Z,1.25
2023-05-18T03:47:05.781Z,1.35
2023-05-18T03:49:35.099Z,1.35
2023-05-18T03:52:04.911Z,1.40
2023-05-18T03:54:32.879Z,1.20
2023-05-18T03:57:00.185Z,1.13
2023-05-18T03:59:27.256Z,1.38
2023-05-18T04:01:54.435Z,1.10
2023-05-18T04:04:23.674Z,1.08
2023-05-18T04:06:54.032Z,1.42
2023-05-18T04:09:23.933Z,1.17
2023-05-18T04:11:51.090Z,1.10
2023-05-18T04:14:18.189Z,1.30
2023-05-18T04:16:45.536Z,1.10
2023-05-18T04:19:13.841Z,1.10
2023-05-18T04:21:43.736Z,1.30
2023-05-18T04:24:14.567Z,1.20
2023-05-18T04:26:42.726Z,1.48
2023-05-18T04:29:10.971Z,1.10
2023-05-18T04:31:42.787Z,1.10
2023-05-18T04:34:09.889Z,1.17
2023-05-18T04:36:39.828Z,1.10
2023-05-18T04:39:07.952Z,1.02
2023-05-18T04:41:35.425Z,1.20
2023-05-18T04:44:03.122Z,1.20
2023-05-18T04:46:30.548Z,1.08
2023-05-18T04:49:01.339Z,1.20
2023-05-18T04:51:34.847Z,1.08
2023-05-18T04:54:03.324Z,1.00
2023-05-18T04:56:30.397Z,1.10
2023-05-18T04:58:59.561Z,1.40
2023-05-18T05:01:29.296Z,1.10
2023-05-18T05:03:58.934Z,1.30
2023-05-18T05:06:26.924Z,1.45
2023-05-18T05:08:54.163Z,1.25
2023-05-18T05:11:21.692Z,0.93
2023-05-18T05:13:48.887Z,1.08
2023-05-18T05:16:16.232Z,0.88
2023-05-18T05:18:44.202Z,1.55
2023-05-18T05:21:13.141Z,0.80
2023-05-18T05:23:41.345Z,1.10
2023-05-18T05:26:09.425Z,1.70
2023-05-18T05:28:36.622Z,1.25
2023-05-18T05:31:03.831Z,1.20
2023-05-18T05:33:30.925Z,1.45
2023-05-18T05:35:58.029Z,1.02
2023-05-18T05:38:25.070Z,1.17
2023-05-18T05:40:52.603Z,1.42
2023-05-18T05:43:20.222Z,1.23
2023-05-18T05:45:47.897Z,1.13
2023-05-18T05:48:15.151Z,1.33
2023-05-18T05:50:42.350Z,1.23
2023-05-18T05:53:09.980Z,1.23
2023-05-18T05:55:41.416Z,1.17
2023-05-18T05:58:12.584Z,1.00
2023-05-18T06:00:41.847Z,1.15
2023-05-18T06:03:09.064Z,0.90
2023-05-18T06:05:39.874Z,1.10
2023-05-18T06:08:09.391Z,1.00
2023-05-18T06:10:36.559Z,1.15
2023-05-18T06:13:04.248Z,1.02
2023-05-18T06:15:45.911Z,0.77
2023-05-18T06:18:13.744Z,1.23
2023-05-18T06:20:41.096Z,1.25
2023-05-18T06:23:08.564Z,1.00
2023-05-18T06:25:53.488Z,1.33
2023-05-18T06:28:31.644Z,1.00
2023-05-18T06:31:34.963Z,1.23
2023-05-18T06:34:17.355Z,1.10
2023-05-18T06:36:44.598Z,1.00
2023-05-18T06:39:11.625Z,1.10
2023-05-18T06:41:39.213Z,1.67
2023-05-18T06:44:06.474Z,1.13
2023-05-18T06:46:37.472Z,1.10
2023-05-18T06:49:20.855Z,1.05
2023-05-18T06:51:48.010Z,1.30
2023-05-18T06:54:15.482Z,1.00
2023-05-18T06:56:43.495Z,1.20
2023-05-18T06:59:10.614Z,1.00
2023-05-18T07:01:38.948Z,1.20
2023-05-18T07:04:06.872Z,1.13
2023-05-18T07:06:34.064Z,1.23
2023-05-18T07:09:03.603Z,1.25
2023-05-18T07:11:30.703Z,1.10
2023-05-18T07:13:57.710Z,0.90
2023-05-18T07:16:27.814Z,1.00
2023-05-18T07:18:57.188Z,1.23
2023-05-18T07:21:24.450Z,1.00
2023-05-18T07:23:52.744Z,1.10
2023-05-18T07:26:20.165Z,0.90
2023-05-18T07:28:47.864Z,1.30
2023-05-18T07:31:16.805Z,0.85
2023-05-18T07:33:44.775Z,0.90
2023-05-18T07:36:11.859Z,1.23
2023-05-18T07:38:38.897Z,1.45
2023-05-18T07:41:06.057Z,1.10
2023-05-18T07:43:33.127Z,1.05
2023-05-18T07:46:00.168Z,1.00
2023-05-18T07:48:27.315Z,1.00
2023-05-18T07:50:54.309Z,1.02
2023-05-18T07:53:21.601Z,1.63
2023-05-18T07:55:50.068Z,1.10
2023-05-18T07:58:17.171Z,1.10
2023-05-18T08:00:44.528Z,1.30
2023-05-18T08:03:12.071Z,0.77
2023-05-18T08:05:39.184Z,0.93
2023-05-18T08:08:07.081Z,1.23
2023-05-18T08:10:34.415Z,1.27
2023-05-18T08:13:01.736Z,0.80
2023-05-18T08:15:29.080Z,1.38
2023-05-18T08:17:57.274Z,1.02
2023-05-18T08:20:25.712Z,0.90
2023-05-18T08:22:52.936Z,2.78
2023-05-18T08:25:20.112Z,1.05
2023-05-18T08:27:47.167Z,1.30
2023-05-18T08:30:14.727Z,0.93
2023-05-18T08:32:42.312Z,1.30
2023-05-18T08:35:10.191Z,0.90
2023-05-18T08:37:38.344Z,1.10
2023-05-18T08:40:08.161Z,0.88
2023-05-18T08:43:02.673Z,0.90
2023-05-18T08:45:58.895Z,0.93
2023-05-18T08:48:28.539Z,0.90
2023-05-18T08:50:58.782Z,1.00
2023-05-18T08:53:26.672Z,1.52
2023-05-18T08:55:58.130Z,1.30
2023-05-18T08:58:35.060Z,1.55
2023-05-18T09:01:02.890Z,1.65
2023-05-18T09:03:30.915Z,1.50
2023-05-18T09:06:00.591Z,1.70
2023-05-18T09:08:29.351Z,1.42
2023-05-18T09:10:58.921Z,1.67
2023-05-18T09:13:27.174Z,1.27
2023-05-18T09:15:54.511Z,2.10
2023-05-18T09:18:24.477Z,1.73
2023-05-18T09:20:52.902Z,1.38
2023-05-18T09:23:20.126Z,1.67
2023-05-18T09:25:50.060Z,1.48
2023-05-18T09:28:37.508Z,1.60
2023-05-18T09:31:07.874Z,1.25
2023-05-18T09:33:39.154Z,1.30
2023-05-18T09:36:08.216Z,2.45
2023-05-18T09:38:46.012Z,1.52
2023-05-18T09:41:16.577Z,1.48
2023-05-18T09:43:49.118Z,1.35
2023-05-18T09:46:16.417Z,1.13
2023-05-18T09:48:46.708Z,2.05
2023-05-18T09:51:17.017Z,1.42
2023-05-18T09:53:49.688Z,1.85
2023-05-18T09:56:18.059Z,1.60
2023-05-18T09:58:46.014Z,1.40
2023-05-18T10:01:13.414Z,1.70
2023-05-18T10:03:40.964Z,1.55
2023-05-18T10:06:09.645Z,1.52
2023-05-18T10:08:37.556Z,1.35
2023-05-18T10:11:05.282Z,1.40
2023-05-18T10:13:34.115Z,1.20
2023-05-18T10:16:07.716Z,2.08
2023-05-18T10:18:37.021Z,1.85
2023-05-18T10:21:07.648Z,1.80
2023-05-18T10:23:38.531Z,1.38
2023-05-18T10:26:07.991Z,1.55
2023-05-18T10:28:44.189Z,1.58
2023-05-18T10:31:11.378Z,1.40
2023-05-18T10:33:38.748Z,1.13
2023-05-18T10:36:07.644Z,1.10
2023-05-18T10:38:42.744Z,1.58
2023-05-18T10:41:12.247Z,1.42
2023-05-18T10:43:41.949Z,0.93
2023-05-18T10:46:10.098Z,1.40
2023-05-18T10:48:41.123Z,0.95
2023-05-18T10:51:08.676Z,1.30
2023-05-18T10:53:36.783Z,1.70
2023-05-18T10:56:04.153Z,1.40
2023-05-18T10:58:32.868Z,1.00
2023-05-18T11:01:01.997Z,1.30
2023-05-18T11:03:30.188Z,1.30
2023-05-18T11:06:09.085Z,1.65
2023-05-18T11:08:46.629Z,1.77
2023-05-18T11:11:15.949Z,1.88
2023-05-18T11:13:48.249Z,1.25
2023-05-18T11:16:16.598Z,1.45
2023-05-18T11:18:46.597Z,1.42
2023-05-18T11:21:32.130Z,1.05
2023-05-18T11:24:18.861Z,1.05
2023-05-18T11:26:48.337Z,1.10
2023-05-18T11:29:23.409Z,1.02
2023-05-18T11:31:55.411Z,1.55
2023-05-18T11:34:47.652Z,1.45
2023-05-18T11:37:16.888Z,1.20
2023-05-18T11:40:00.327Z,1.00
2023-05-18T11:42:34.736Z,1.83
2023-05-18T11:45:11.851Z,3.33
2023-05-18T11:47:42.814Z,2.30
2023-05-18T11:50:14.802Z,1.85
2023-05-18T11:52:53.295Z,2.28
2023-05-18T11:55:21.224Z,1.75
2023-05-18T11:57:53.033Z,1.85
2023-05-18T12:00:21.258Z,2.00
2023-05-18T12:02:49.628Z,1.27
2023-05-18T12:05:17.697Z,1.63
2023-05-18T12:07:52.062Z,1.40
2023-05-18T12:10:22.189Z,1.23
2023-05-18T12:12:52.881Z,1.60
2023-05-18T12:15:24.222Z,1.20
2023-05-18T12:17:51.944Z,1.88
2023-05-18T12:20:21.113Z,1.50
2023-05-18T12:22:52.283Z,1.48
2023-05-18T12:25:24.768Z,2.20
2023-05-18T12:27:53.192Z,1.58
2023-05-18T12:30:23.237Z,1.52
2023-05-18T12:32:56.047Z,1.45
2023-05-18T12:35:24.272Z,1.70
2023-05-18T12:37:51.562Z,1.45
2023-05-18T12:40:20.134Z,1.58
2023-05-18T12:42:59.947Z,1.65
2023-05-18T12:45:29.709Z,1.75
2023-05-18T12:47:57.432Z,1.95
2023-05-18T12:50:28.556Z,1.65
2023-05-18T12:52:59.163Z,1.30
2023-05-18T12:55:26.670Z,1.90
2023-05-18T12:58:02.220Z,1.45
2023-05-18T13:00:37.062Z,1.30
2023-05-18T13:03:16.231Z,1.52
2023-05-18T13:05:46.213Z,1.42
2023-05-18T13:08:22.167Z,2.47
2023-05-18T13:11:01.400Z,1.77
2023-05-18T13:13:33.121Z,1.65
2023-05-18T13:16:00.587Z,1.77
2023-05-18T13:18:28.362Z,1.30
2023-05-18T13:20:58.273Z,1.30
2023-05-18T13:23:29.938Z,1.50
2023-05-18T13:25:58.979Z,1.85
2023-05-18T13:28:27.446Z,2.17
2023-05-18T13:30:54.726Z,1.80
2023-05-18T13:33:21.898Z,1.88
2023-05-18T13:35:50.010Z,1.70
2023-05-18T13:38:17.251Z,1.83
2023-05-18T13:40:45.773Z,1.73
2023-05-18T13:43:13.718Z,1.95
2023-05-18T13:45:41.866Z,1.70
2023-05-18T13:48:10.674Z,1.30
2023-05-18T13:50:38.561Z,1.58
2023-05-18T13:53:06.809Z,2.03
2023-05-18T13:55:34.604Z,1.63
2023-05-18T13:58:01.947Z,2.15
2023-05-18T14:00:29.103Z,2.20
2023-05-18T14:02:56.905Z,1.83
2023-05-18T14:05:24.595Z,1.33
2023-05-18T14:07:54.801Z,2.20
2023-05-18T14:10:21.886Z,1.85
2023-05-18T14:12:49.356Z,2.72
2023-05-18T14:15:16.532Z,1.65
2023-05-18T14:17:44.088Z,2.28
2023-05-18T14:20:12.466Z,1.55
2023-05-18T14:22:39.895Z,1.77
2023-05-18T14:25:07.271Z,1.90
2023-05-18T14:27:34.422Z,1.92
2023-05-18T14:30:01.510Z,1.70
2023-05-18T14:32:28.698Z,1.52
2023-05-18T14:34:58.089Z,1.17
2023-05-18T14:37:25.708Z,1.77
2023-05-18T14:39:52.853Z,2.17
2023-05-18T14:42:20.123Z,2.15
2023-05-18T14:44:47.271Z,1.63
2023-05-18T14:47:14.544Z,2.47
2023-05-18T14:49:41.766Z,1.70
2023-05-18T14:52:08.848Z,1.70
2023-05-18T14:54:36.710Z,1.83
2023-05-18T14:57:04.057Z,1.65
2023-05-18T14:59:31.305Z,2.38
2023-05-18T15:01:58.618Z,1.55
2023-05-18T15:04:26.086Z,1.50
2023-05-18T15:06:53.277Z,1.80
2023-05-18T15:09:20.477Z,1.50
2023-05-18T15:11:47.639Z,1.70
2023-05-18T15:14:14.755Z,1.92
2023-05-18T15:16:42.756Z,1.75
2023-05-18T15:19:10.152Z,1.63
2023-05-18T15:21:37.353Z,1.60
2023-05-18T15:24:04.531Z,1.40
2023-05-18T15:26:32.044Z,2.08
2023-05-18T15:28:59.139Z,2.00
2023-05-18T15:31:26.202Z,1.42
2023-05-18T15:33:53.343Z,1.52
2023-05-18T15:36:21.726Z,1.40
2023-05-18T15:38:50.074Z,1.45
2023-05-18T15:41:19.048Z,1.38
2023-05-18T15:43:46.834Z,1.35
2023-05-18T15:46:14.039Z,1.75
2023-05-18T15:48:41.150Z,1.30
2023-05-18T15:51:08.173Z,1.55
2023-05-18T15:53:35.398Z,1.50
2023-05-18T15:56:02.666Z,1.67
2023-05-18T15:58:30.172Z,1.38
2023-05-18T16:00:57.410Z,1.10
2023-05-18T16:03:24.689Z,1.40
2023-05-18T16:05:52.550Z,1.30
2023-05-18T16:08:20.703Z,1.42
2023-05-18T16:10:47.846Z,1.20
2023-05-18T16:13:14.936Z,1.27
2023-05-18T16:15:42.106Z,1.20
2023-05-18T16:18:09.287Z,1.55
2023-05-18T16:20:36.338Z,1.52
2023-05-18T16:23:03.411Z,1.63
2023-05-18T16:25:32.746Z,1.30
2023-05-18T16:28:00.075Z,1.27
2023-05-18T16:30:27.268Z,1.90
2023-05-18T16:32:54.467Z,1.30
2023-05-18T16:35:21.506Z,1.67
2023-05-18T16:37:48.593Z,1.30
2023-05-18T16:40:15.931Z,1.20
2023-05-18T16:42:47.195Z,1.55
2023-05-18T16:45:14.932Z,1.08
2023-05-18T16:47:42.135Z,1.15
2023-05-18T16:50:09.783Z,1.20
2023-05-18T16:52:37.508Z,1.80
2023-05-18T16:55:04.950Z,1.65
2023-05-18T16:57:33.837Z,1.35
2023-05-18T17:00:07.377Z,1.20
2023-05-18T17:02:38.384Z,1.13
2023-05-18T17:05:06.911Z,1.17
2023-05-18T17:07:34.717Z,1.60
2023-05-18T17:10:02.381Z,1.38
2023-05-18T17:12:29.932Z,1.15
2023-05-18T17:14:57.070Z,1.50
2023-05-18T17:17:24.184Z,1.50
2023-05-18T17:19:51.501Z,1.40
2023-05-18T17:22:19.034Z,1.30
2023-05-18T17:24:46.194Z,1.55
2023-05-18T17:27:13.308Z,1.30
2023-05-18T17:29:40.378Z,1.15
2023-05-18T17:32:07.782Z,1.75
2023-05-18T17:34:34.931Z,1.45
2023-05-18T17:37:02.001Z,1.10
2023-05-18T17:39:29.089Z,1.40
2023-05-18T17:41:56.277Z,1.23
2023-05-18T17:44:23.479Z,1.52
2023-05-18T17:46:51.053Z,1.45
2023-05-18T17:49:18.256Z,1.42
2023-05-18T17:51:46.084Z,1.45
2023-05-18T17:54:13.200Z,1.60
2023-05-18T17:56:40.490Z,1.60
2023-05-18T17:59:07.706Z,1.60
2023-05-18T18:01:34.960Z,1.70
2023-05-18T18:04:02.253Z,1.50
2023-05-18T18:06:29.384Z,2.00
2023-05-18T18:08:58.296Z,1.88
2023-05-18T18:11:26.590Z,1.70
2023-05-18T18:13:54.394Z,2.00
2023-05-18T18:16:22.313Z,1.63
2023-05-18T18:18:50.569Z,1.92
2023-05-18T18:21:17.914Z,2.63
2023-05-18T18:23:45.320Z,2.05
2023-05-18T18:26:12.461Z,2.35
2023-05-18T18:28:39.689Z,2.05
2023-05-18T18:31:06.730Z,2.28
2023-05-18T18:33:33.969Z,2.03
2023-05-18T18:36:02.462Z,2.05
2023-05-18T18:38:29.545Z,2.40
2023-05-18T18:41:01.456Z,1.85
2023-05-18T18:43:29.008Z,2.00
2023-05-18T18:45:57.341Z,1.75
2023-05-18T18:48:25.576Z,1.88
2023-05-18T18:50:53.612Z,1.88
2023-05-18T18:53:20.686Z,2.00
2023-05-18T18:55:48.020Z,1.75
2023-05-18T18:58:15.853Z,1.30
2023-05-18T19:00:43.077Z,1.52
2023-05-18T19:03:10.525Z,1.45
2023-05-18T19:05:38.145Z,1.90
2023-05-18T19:08:05.463Z,1.50
2023-05-18T19:10:34.236Z,2.20
2023-05-18T19:13:05.746Z,1.30
2023-05-18T19:15:34.332Z,1.38
2023-05-18T19:18:01.901Z,1.30
2023-05-18T19:20:29.016Z,0.90
2023-05-18T19:22:56.022Z,0.93
2023-05-18T19:25:26.494Z,1.10
2023-05-18T19:27:54.283Z,1.13
2023-05-18T19:30:22.769Z,1.05
2023-05-18T19:32:51.607Z,0.90
2023-05-18T19:35:20.229Z,0.70
2023-05-18T19:37:48.011Z,0.90
2023-05-18T19:40:16.291Z,0.82
2023-05-18T19:42:43.574Z,0.50
2023-05-18T19:45:11.074Z,0.50
2023-05-18T19:47:38.236Z,0.50
2023-05-18T19:50:06.595Z,0.80
2023-05-18T19:52:33.834Z,0.70
2023-05-18T19:55:02.246Z,0.50
2023-05-18T19:57:29.875Z,0.65
2023-05-18T19:59:57.921Z,0.60
2023-05-18T20:02:25.602Z,0.40
2023-05-18T20:04:53.801Z,0.47
2023-05-18T20:07:22.668Z,0.50
2023-05-18T20:09:53.036Z,0.43
2023-05-18T20:12:20.479Z,0.52
2023-05-18T20:14:48.500Z,0.50
2023-05-18T20:17:16.935Z,0.40
2023-05-18T20:19:50.644Z,0.70
2023-05-18T20:22:18.329Z,0.50
2023-05-18T20:24:46.278Z,0.50
2023-05-18T20:27:14.815Z,0.57
2023-05-18T20:29:41.911Z,0.43
2023-05-18T20:32:09.100Z,0.50
2023-05-18T20:34:36.812Z,0.50
2023-05-18T20:37:04.393Z,0.40
2023-05-18T20:39:32.344Z,0.40
2023-05-18T20:41:59.626Z,0.40
2023-05-18T20:44:28.067Z,0.30
2023-05-18T20:46:55.252Z,0.40
2023-05-18T20:49:22.403Z,0.60
2023-05-18T20:51:49.720Z,0.57
2023-05-18T20:54:21.607Z,0.40
2023-05-18T20:56:49.110Z,0.32
2023-05-18T20:59:16.432Z,0.50
2023-05-18T21:01:43.573Z,0.65
2023-05-18T21:04:12.794Z,0.50
2023-05-18T21:06:41.099Z,0.40
2023-05-18T21:09:08.441Z,0.77
2023-05-18T21:11:35.954Z,0.60
2023-05-18T21:14:03.143Z,0.40
2023-05-18T21:16:30.326Z,0.40
2023-05-18T21:18:57.627Z,0.50
2023-05-18T21:21:24.971Z,0.52
2023-05-18T21:23:52.135Z,0.40
2023-05-18T21:26:19.361Z,0.40
2023-05-18T21:28:46.478Z,0.47
2023-05-18T21:31:13.596Z,0.60
2023-05-18T21:33:42.066Z,0.50
2023-05-18T21:36:10.015Z,0.45
2023-05-18T21:38:37.330Z,0.40
2023-05-18T21:41:04.478Z,0.40
2023-05-18T21:43:31.805Z,0.40
2023-05-18T21:48:26.119Z,0.40
2023-05-18T21:50:53.131Z,0.30
2023-05-18T21:53:20.464Z,0.40
2023-05-18T21:55:47.629Z,0.38
2023-05-18T21:58:14.752Z,0.40
2023-05-18T22:00:41.900Z,0.50
2023-05-18T22:03:09.065Z,0.68
2023-05-18T22:05:36.253Z,0.50
2023-05-18T22:08:03.437Z,0.40
2023-05-18T22:10:32.263Z,0.38
2023-05-18T22:12:59.708Z,0.40
2023-05-18T22:15:26.891Z,0.40
2023-05-18T22:17:56.996Z,0.40
2023-05-18T22:20:24.153Z,0.50
2023-05-18T22:22:51.260Z,0.40
2023-05-18T22:25:18.581Z,0.40
2023-05-18T22:27:46.600Z,0.40
2023-05-18T22:30:14.245Z,0.45
2023-05-18T22:32:41.405Z,0.50
2023-05-18T22:35:09.454Z,0.30
2023-05-18T22:37:36.743Z,0.32
2023-05-18T22:40:06.443Z,0.35
2023-05-18T22:42:33.945Z,0.30
2023-05-18T22:45:01.341Z,0.40
2023-05-18T22:47:29.737Z,0.40
2023-05-18T22:49:56.958Z,0.68
2023-05-18T22:52:24.037Z,0.50
2023-05-18T22:54:51.124Z,0.60
2023-05-18T22:57:18.221Z,0.52
2023-05-18T22:59:45.389Z,0.47
2023-05-18T23:02:12.562Z,0.60
2023-05-18T23:04:39.749Z,0.40
2023-05-18T23:07:08.425Z,0.60
2023-05-18T23:09:38.460Z,0.60
2023-05-18T23:12:06.337Z,0.60
2023-05-18T23:14:33.858Z,0.50
2023-05-18T23:17:01.152Z,0.52
2023-05-18T23:19:28.479Z,0.70
2023-05-18T23:21:56.607Z,0.50
2023-05-18T23:24:23.726Z,0.40
2023-05-18T23:26:50.895Z,0.50
2023-05-18T23:29:18.053Z,0.45
2023-05-18T23:31:45.235Z,0.40
2023-05-18T23:34:12.601Z,0.60
2023-05-18T23:36:42.876Z,0.50
2023-05-18T23:39:10.439Z,0.50
2023-05-18T23:41:38.134Z,0.50
2023-05-18T23:44:06.571Z,0.50
2023-05-18T23:46:34.395Z,0.50
2023-05-18T23:49:01.784Z,0.40
2023-05-18T23:51:32.159Z,0.52
2023-05-18T23:54:00.297Z,0.40
2023-05-18T23:56:27.595Z,0.50
2023-05-18T23:58:54.872Z,0.50
